sensor_id;sensor_type;location;lat;lon;timestamp;P1;durP1;ratioP1;P2;durP2;ratioP2
74196;SDS011;62555;52.678;4.900;2022-10-01T00:00:15;2.45;;;2.25;;
74196;SDS011;62555;52.678;4.900;2022-10-01T00:02:41;2.30;;;2.10;;
74196;SDS011;62555;52.678;4.900;2022-10-01T00:05:06;2.65;;;2.38;;
74196;SDS011;62555;52.678;4.900;2022-10-01T00:07:41;2.38;;;2.17;;
74196;SDS011;62555;52.678;4.900;2022-10-01T00:10:08;3.28;;;2.08;;
74196;SDS011;62555;52.678;4.900;2022-10-01T00:12:35;2.10;;;1.90;;
74196;SDS011;62555;52.678;4.900;2022-10-01T00:15:01;2.25;;;2.05;;
74196;SDS011;62555;52.678;4.900;2022-10-01T00:17:27;2.30;;;2.10;;
74196;SDS011;62555;52.678;4.900;2022-10-01T00:19:52;2.35;;;1.80;;
74196;SDS011;62555;52.678;4.900;2022-10-01T00:22:17;1.98;;;1.85;;
74196;SDS011;62555;52.678;4.900;2022-10-01T00:24:43;2.05;;;1.88;;
74196;SDS011;62555;52.678;4.900;2022-10-01T00:27:10;3.22;;;1.80;;
74196;SDS011;62555;52.678;4.900;2022-10-01T00:29:36;2.35;;;1.80;;
74196;SDS011;62555;52.678;4.900;2022-10-01T00:32:02;2.17;;;1.65;;
74196;SDS011;62555;52.678;4.900;2022-10-01T00:34:27;2.15;;;1.90;;
74196;SDS011;62555;52.678;4.900;2022-10-01T00:36:52;2.28;;;2.00;;
74196;SDS011;62555;52.678;4.900;2022-10-01T00:39:18;1.85;;;1.75;;
74196;SDS011;62555;52.678;4.900;2022-10-01T00:41:44;2.05;;;1.95;;
74196;SDS011;62555;52.678;4.900;2022-10-01T00:47:44;1.95;;;1.75;;
74196;SDS011;62555;52.678;4.900;2022-10-01T00:53:00;2.08;;;1.95;;
74196;SDS011;62555;52.678;4.900;2022-10-01T00:55:30;2.20;;;1.77;;
74196;SDS011;62555;52.678;4.900;2022-10-01T00:57:58;2.28;;;1.90;;
74196;SDS011;62555;52.678;4.900;2022-10-01T01:00:24;3.17;;;1.90;;
74196;SDS011;62555;52.678;4.900;2022-10-01T01:02:49;2.08;;;1.77;;
74196;SDS011;62555;52.678;4.900;2022-10-01T01:05:15;2.33;;;2.13;;
74196;SDS011;62555;52.678;4.900;2022-10-01T01:07:41;2.63;;;1.50;;
74196;SDS011;62555;52.678;4.900;2022-10-01T01:10:09;2.03;;;1.70;;
74196;SDS011;62555;52.678;4.900;2022-10-01T01:25:40;1.87;;;1.43;;
74196;SDS011;62555;52.678;4.900;2022-10-01T01:28:15;1.85;;;1.40;;
74196;SDS011;62555;52.678;4.900;2022-10-01T01:30:43;2.53;;;1.70;;
74196;SDS011;62555;52.678;4.900;2022-10-01T01:33:11;2.00;;;1.70;;
74196;SDS011;62555;52.678;4.900;2022-10-01T01:35:42;1.58;;;1.40;;
74196;SDS011;62555;52.678;4.900;2022-10-01T01:38:11;1.92;;;1.45;;
74196;SDS011;62555;52.678;4.900;2022-10-01T01:40:40;1.85;;;1.30;;
74196;SDS011;62555;52.678;4.900;2022-10-01T01:43:10;1.48;;;1.38;;
74196;SDS011;62555;52.678;4.900;2022-10-01T01:45:39;1.38;;;1.27;;
74196;SDS011;62555;52.678;4.900;2022-10-01T01:48:06;2.13;;;1.73;;
74196;SDS011;62555;52.678;4.900;2022-10-01T01:50:36;1.70;;;1.60;;
74196;SDS011;62555;52.678;4.900;2022-10-01T01:53:06;1.88;;;1.40;;
74196;SDS011;62555;52.678;4.900;2022-10-01T01:55:31;2.00;;;1.40;;
74196;SDS011;62555;52.678;4.900;2022-10-01T01:57:58;1.50;;;1.40;;
74196;SDS011;62555;52.678;4.900;2022-10-01T02:00:24;1.85;;;1.50;;
74196;SDS011;62555;52.678;4.900;2022-10-01T02:02:50;1.98;;;1.30;;
74196;SDS011;62555;52.678;4.900;2022-10-01T02:13:30;1.48;;;1.30;;
74196;SDS011;62555;52.678;4.900;2022-10-01T02:21:18;1.45;;;1.20;;
74196;SDS011;62555;52.678;4.900;2022-10-01T02:23:51;1.33;;;1.23;;
74196;SDS011;62555;52.678;4.900;2022-10-01T02:26:22;1.40;;;1.30;;
74196;SDS011;62555;52.678;4.900;2022-10-01T02:28:48;1.45;;;1.20;;
74196;SDS011;62555;52.678;4.900;2022-10-01T02:31:15;1.50;;;1.40;;
74196;SDS011;62555;52.678;4.900;2022-10-01T02:33:41;1.58;;;1.23;;
74196;SDS011;62555;52.678;4.900;2022-10-01T02:36:08;1.88;;;1.23;;
74196;SDS011;62555;52.678;4.900;2022-10-01T02:38:35;0.90;;;0.90;;
74196;SDS011;62555;52.678;4.900;2022-10-01T02:41:03;1.45;;;1.30;;
74196;SDS011;62555;52.678;4.900;2022-10-01T02:43:32;1.17;;;1.05;;
74196;SDS011;62555;52.678;4.900;2022-10-01T02:46:06;1.35;;;1.23;;
74196;SDS011;62555;52.678;4.900;2022-10-01T02:48:38;2.13;;;1.30;;
74196;SDS011;62555;52.678;4.900;2022-10-01T02:51:17;1.58;;;1.48;;
74196;SDS011;62555;52.678;4.900;2022-10-01T02:53:50;1.02;;;1.00;;
74196;SDS011;62555;52.678;4.900;2022-10-01T02:56:19;1.40;;;1.30;;
74196;SDS011;62555;52.678;4.900;2022-10-01T02:59:07;1.27;;;1.17;;
74196;SDS011;62555;52.678;4.900;2022-10-01T03:01:33;1.45;;;1.35;;
74196;SDS011;62555;52.678;4.900;2022-10-01T03:04:00;1.40;;;1.30;;
74196;SDS011;62555;52.678;4.900;2022-10-01T03:06:26;1.38;;;1.27;;
74196;SDS011;62555;52.678;4.900;2022-10-01T03:08:52;1.65;;;1.30;;
74196;SDS011;62555;52.678;4.900;2022-10-01T03:11:17;2.03;;;1.30;;
74196;SDS011;62555;52.678;4.900;2022-10-01T03:13:43;1.38;;;1.27;;
74196;SDS011;62555;52.678;4.900;2022-10-01T03:16:08;1.27;;;1.00;;
74196;SDS011;62555;52.678;4.900;2022-10-01T03:18:34;1.30;;;1.15;;
74196;SDS011;62555;52.678;4.900;2022-10-01T03:20:59;2.38;;;1.48;;
74196;SDS011;62555;52.678;4.900;2022-10-01T03:23:24;2.13;;;1.25;;
74196;SDS011;62555;52.678;4.900;2022-10-01T03:25:50;1.20;;;1.10;;
74196;SDS011;62555;52.678;4.900;2022-10-01T03:28:15;1.95;;;1.42;;
74196;SDS011;62555;52.678;4.900;2022-10-01T03:30:40;1.50;;;1.40;;
74196;SDS011;62555;52.678;4.900;2022-10-01T03:33:05;1.73;;;1.20;;
74196;SDS011;62555;52.678;4.900;2022-10-01T03:35:31;1.75;;;1.40;;
74196;SDS011;62555;52.678;4.900;2022-10-01T03:37:56;1.88;;;1.38;;
74196;SDS011;62555;52.678;4.900;2022-10-01T03:40:22;1.73;;;1.63;;
74196;SDS011;62555;52.678;4.900;2022-10-01T03:42:49;1.90;;;1.70;;
74196;SDS011;62555;52.678;4.900;2022-10-01T03:45:15;1.40;;;1.30;;
74196;SDS011;62555;52.678;4.900;2022-10-01T03:47:40;1.55;;;1.30;;
74196;SDS011;62555;52.678;4.900;2022-10-01T03:50:06;1.98;;;1.20;;
74196;SDS011;62555;52.678;4.900;2022-10-01T03:52:31;1.73;;;1.23;;
74196;SDS011;62555;52.678;4.900;2022-10-01T03:54:56;2.50;;;1.30;;
74196;SDS011;62555;52.678;4.900;2022-10-01T03:57:22;1.63;;;1.52;;
74196;SDS011;62555;52.678;4.900;2022-10-01T03:59:47;1.30;;;1.20;;
74196;SDS011;62555;52.678;4.900;2022-10-01T04:02:12;1.40;;;1.25;;
74196;SDS011;62555;52.678;4.900;2022-10-01T04:04:38;1.40;;;1.00;;
74196;SDS011;62555;52.678;4.900;2022-10-01T04:07:03;2.25;;;1.00;;
74196;SDS011;62555;52.678;4.900;2022-10-01T04:09:28;1.80;;;1.00;;
74196;SDS011;62555;52.678;4.900;2022-10-01T04:11:54;1.98;;;1.42;;
74196;SDS011;62555;52.678;4.900;2022-10-01T04:14:19;1.95;;;1.20;;
74196;SDS011;62555;52.678;4.900;2022-10-01T04:16:45;1.27;;;1.17;;
74196;SDS011;62555;52.678;4.900;2022-10-01T04:19:10;1.30;;;1.20;;
74196;SDS011;62555;52.678;4.900;2022-10-01T04:21:35;1.20;;;1.10;;
74196;SDS011;62555;52.678;4.900;2022-10-01T04:24:03;2.47;;;1.63;;
74196;SDS011;62555;52.678;4.900;2022-10-01T04:26:29;2.30;;;1.30;;
74196;SDS011;62555;52.678;4.900;2022-10-01T04:28:54;1.63;;;1.08;;
74196;SDS011;62555;52.678;4.900;2022-10-01T04:31:19;2.35;;;1.40;;
74196;SDS011;62555;52.678;4.900;2022-10-01T04:33:51;1.45;;;1.35;;
74196;SDS011;62555;52.678;4.900;2022-10-01T04:36:18;3.10;;;1.40;;
74196;SDS011;62555;52.678;4.900;2022-10-01T04:38:44;1.73;;;1.20;;
74196;SDS011;62555;52.678;4.900;2022-10-01T04:41:09;1.10;;;0.98;;
74196;SDS011;62555;52.678;4.900;2022-10-01T04:43:35;1.55;;;1.00;;
74196;SDS011;62555;52.678;4.900;2022-10-01T04:46:00;2.85;;;1.20;;
74196;SDS011;62555;52.678;4.900;2022-10-01T04:48:26;1.77;;;1.08;;
74196;SDS011;62555;52.678;4.900;2022-10-01T04:50:51;1.25;;;1.08;;
74196;SDS011;62555;52.678;4.900;2022-10-01T04:53:16;1.98;;;1.10;;
74196;SDS011;62555;52.678;4.900;2022-10-01T04:55:42;1.20;;;0.95;;
74196;SDS011;62555;52.678;4.900;2022-10-01T04:58:07;2.80;;;1.67;;
74196;SDS011;62555;52.678;4.900;2022-10-01T05:00:33;3.00;;;1.25;;
74196;SDS011;62555;52.678;4.900;2022-10-01T05:02:58;2.28;;;1.48;;
74196;SDS011;62555;52.678;4.900;2022-10-01T05:05:23;1.50;;;1.10;;
74196;SDS011;62555;52.678;4.900;2022-10-01T05:10:17;1.83;;;1.00;;
74196;SDS011;62555;52.678;4.900;2022-10-01T05:12:44;1.63;;;1.33;;
74196;SDS011;62555;52.678;4.900;2022-10-01T05:15:10;3.22;;;1.25;;
74196;SDS011;62555;52.678;4.900;2022-10-01T05:17:36;1.75;;;1.17;;
74196;SDS011;62555;52.678;4.900;2022-10-01T05:20:02;3.10;;;1.92;;
74196;SDS011;62555;52.678;4.900;2022-10-01T05:22:28;3.70;;;1.50;;
74196;SDS011;62555;52.678;4.900;2022-10-01T05:24:54;3.40;;;1.23;;
74196;SDS011;62555;52.678;4.900;2022-10-01T05:27:19;2.42;;;1.50;;
74196;SDS011;62555;52.678;4.900;2022-10-01T05:29:45;2.95;;;1.35;;
74196;SDS011;62555;52.678;4.900;2022-10-01T05:32:11;1.80;;;1.40;;
74196;SDS011;62555;52.678;4.900;2022-10-01T05:34:36;2.72;;;1.52;;
74196;SDS011;62555;52.678;4.900;2022-10-01T05:37:02;3.05;;;1.35;;
74196;SDS011;62555;52.678;4.900;2022-10-01T05:39:28;2.25;;;1.35;;
74196;SDS011;62555;52.678;4.900;2022-10-01T05:41:54;2.10;;;1.20;;
74196;SDS011;62555;52.678;4.900;2022-10-01T05:44:21;1.60;;;1.20;;
74196;SDS011;62555;52.678;4.900;2022-10-01T05:46:47;2.03;;;1.30;;
74196;SDS011;62555;52.678;4.900;2022-10-01T05:49:12;3.97;;;1.38;;
74196;SDS011;62555;52.678;4.900;2022-10-01T05:51:39;2.55;;;1.33;;
74196;SDS011;62555;52.678;4.900;2022-10-01T05:54:04;3.58;;;1.95;;
74196;SDS011;62555;52.678;4.900;2022-10-01T05:56:30;3.30;;;1.60;;
74196;SDS011;62555;52.678;4.900;2022-10-01T05:58:55;1.80;;;1.25;;
74196;SDS011;62555;52.678;4.900;2022-10-01T06:01:20;1.40;;;1.30;;
74196;SDS011;62555;52.678;4.900;2022-10-01T06:03:49;1.55;;;1.00;;
74196;SDS011;62555;52.678;4.900;2022-10-01T06:06:19;1.70;;;1.30;;
74196;SDS011;62555;52.678;4.900;2022-10-01T06:08:47;1.90;;;1.60;;
74196;SDS011;62555;52.678;4.900;2022-10-01T06:11:13;2.00;;;1.20;;
74196;SDS011;62555;52.678;4.900;2022-10-01T06:13:38;2.40;;;1.27;;
74196;SDS011;62555;52.678;4.900;2022-10-01T06:16:09;2.35;;;1.33;;
74196;SDS011;62555;52.678;4.900;2022-10-01T06:18:38;2.17;;;1.33;;
74196;SDS011;62555;52.678;4.900;2022-10-01T06:21:03;1.90;;;1.60;;
74196;SDS011;62555;52.678;4.900;2022-10-01T06:23:29;3.95;;;1.58;;
74196;SDS011;62555;52.678;4.900;2022-10-01T06:25:54;2.88;;;1.50;;
74196;SDS011;62555;52.678;4.900;2022-10-01T06:28:20;2.90;;;1.38;;
74196;SDS011;62555;52.678;4.900;2022-10-01T06:30:45;4.78;;;1.45;;
74196;SDS011;62555;52.678;4.900;2022-10-01T06:33:11;3.72;;;1.38;;
74196;SDS011;62555;52.678;4.900;2022-10-01T06:35:39;3.75;;;1.30;;
74196;SDS011;62555;52.678;4.900;2022-10-01T06:38:06;3.30;;;1.58;;
74196;SDS011;62555;52.678;4.900;2022-10-01T06:40:33;4.28;;;1.20;;
74196;SDS011;62555;52.678;4.900;2022-10-01T06:42:59;4.15;;;1.75;;
74196;SDS011;62555;52.678;4.900;2022-10-01T06:45:28;3.28;;;1.60;;
74196;SDS011;62555;52.678;4.900;2022-10-01T06:47:54;2.35;;;1.42;;
74196;SDS011;62555;52.678;4.900;2022-10-01T06:50:20;4.97;;;1.10;;
74196;SDS011;62555;52.678;4.900;2022-10-01T06:52:46;3.97;;;1.63;;
74196;SDS011;62555;52.678;4.900;2022-10-01T06:55:15;2.88;;;1.20;;
74196;SDS011;62555;52.678;4.900;2022-10-01T06:57:43;3.90;;;1.10;;
74196;SDS011;62555;52.678;4.900;2022-10-01T07:00:10;4.05;;;1.27;;
74196;SDS011;62555;52.678;4.900;2022-10-01T07:02:36;3.05;;;1.38;;
74196;SDS011;62555;52.678;4.900;2022-10-01T07:05:02;2.45;;;1.00;;
74196;SDS011;62555;52.678;4.900;2022-10-01T07:07:31;3.58;;;1.52;;
74196;SDS011;62555;52.678;4.900;2022-10-01T07:09:59;2.55;;;1.70;;
74196;SDS011;62555;52.678;4.900;2022-10-01T07:12:24;3.28;;;1.52;;
74196;SDS011;62555;52.678;4.900;2022-10-01T07:14:50;1.75;;;1.48;;
74196;SDS011;62555;52.678;4.900;2022-10-01T07:17:15;2.58;;;1.30;;
74196;SDS011;62555;52.678;4.900;2022-10-01T07:19:41;3.72;;;1.15;;
74196;SDS011;62555;52.678;4.900;2022-10-01T07:22:06;1.30;;;1.20;;
74196;SDS011;62555;52.678;4.900;2022-10-01T07:24:32;4.57;;;1.58;;
74196;SDS011;62555;52.678;4.900;2022-10-01T07:26:58;3.42;;;1.00;;
74196;SDS011;62555;52.678;4.900;2022-10-01T07:29:23;3.00;;;1.15;;
74196;SDS011;62555;52.678;4.900;2022-10-01T07:31:49;4.00;;;1.38;;
74196;SDS011;62555;52.678;4.900;2022-10-01T07:34:15;2.53;;;0.90;;
74196;SDS011;62555;52.678;4.900;2022-10-01T07:36:41;2.33;;;1.55;;
74196;SDS011;62555;52.678;4.900;2022-10-01T07:39:10;2.63;;;1.15;;
74196;SDS011;62555;52.678;4.900;2022-10-01T07:41:36;3.17;;;1.10;;
74196;SDS011;62555;52.678;4.900;2022-10-01T07:44:01;3.20;;;1.35;;
74196;SDS011;62555;52.678;4.900;2022-10-01T07:46:28;2.90;;;0.90;;
74196;SDS011;62555;52.678;4.900;2022-10-01T07:48:53;2.03;;;1.10;;
74196;SDS011;62555;52.678;4.900;2022-10-01T07:51:19;4.72;;;1.35;;
74196;SDS011;62555;52.678;4.900;2022-10-01T07:53:44;2.17;;;1.13;;
74196;SDS011;62555;52.678;4.900;2022-10-01T07:56:10;1.92;;;0.95;;
74196;SDS011;62555;52.678;4.900;2022-10-01T07:58:36;2.58;;;0.95;;
74196;SDS011;62555;52.678;4.900;2022-10-01T08:01:02;2.60;;;1.10;;
74196;SDS011;62555;52.678;4.900;2022-10-01T08:03:27;1.98;;;1.02;;
74196;SDS011;62555;52.678;4.900;2022-10-01T08:05:53;3.03;;;1.20;;
74196;SDS011;62555;52.678;4.900;2022-10-01T08:08:18;2.22;;;1.42;;
74196;SDS011;62555;52.678;4.900;2022-10-01T08:10:44;3.30;;;1.20;;
74196;SDS011;62555;52.678;4.900;2022-10-01T08:13:13;3.42;;;1.23;;
74196;SDS011;62555;52.678;4.900;2022-10-01T08:15:49;3.00;;;1.13;;
74196;SDS011;62555;52.678;4.900;2022-10-01T08:18:17;3.28;;;1.33;;
74196;SDS011;62555;52.678;4.900;2022-10-01T08:20:43;4.57;;;1.83;;
74196;SDS011;62555;52.678;4.900;2022-10-01T08:23:10;7.30;;;1.70;;
74196;SDS011;62555;52.678;4.900;2022-10-01T08:25:36;4.90;;;2.38;;
74196;SDS011;62555;52.678;4.900;2022-10-01T08:28:02;5.05;;;1.60;;
74196;SDS011;62555;52.678;4.900;2022-10-01T08:30:28;3.70;;;1.42;;
74196;SDS011;62555;52.678;4.900;2022-10-01T08:32:54;3.22;;;1.25;;
74196;SDS011;62555;52.678;4.900;2022-10-01T08:35:20;3.63;;;1.92;;
74196;SDS011;62555;52.678;4.900;2022-10-01T08:37:46;4.63;;;1.50;;
74196;SDS011;62555;52.678;4.900;2022-10-01T08:40:11;3.10;;;1.50;;
74196;SDS011;62555;52.678;4.900;2022-10-01T08:42:40;3.72;;;1.58;;
74196;SDS011;62555;52.678;4.900;2022-10-01T08:45:13;3.45;;;1.40;;
74196;SDS011;62555;52.678;4.900;2022-10-01T08:47:41;3.28;;;1.17;;
74196;SDS011;62555;52.678;4.900;2022-10-01T08:50:11;5.55;;;1.40;;
74196;SDS011;62555;52.678;4.900;2022-10-01T08:52:48;3.78;;;1.58;;
74196;SDS011;62555;52.678;4.900;2022-10-01T08:55:20;3.53;;;1.80;;
74196;SDS011;62555;52.678;4.900;2022-10-01T08:57:55;4.40;;;1.95;;
74196;SDS011;62555;52.678;4.900;2022-10-01T09:00:23;3.92;;;1.52;;
74196;SDS011;62555;52.678;4.900;2022-10-01T09:02:48;3.10;;;1.77;;
74196;SDS011;62555;52.678;4.900;2022-10-01T09:16:27;3.53;;;1.60;;
74196;SDS011;62555;52.678;4.900;2022-10-01T09:27:18;4.60;;;2.00;;
74196;SDS011;62555;52.678;4.900;2022-10-01T09:29:53;4.63;;;1.80;;
74196;SDS011;62555;52.678;4.900;2022-10-01T09:32:25;2.80;;;2.10;;
74196;SDS011;62555;52.678;4.900;2022-10-01T09:34:57;5.72;;;1.58;;
74196;SDS011;62555;52.678;4.900;2022-10-01T09:37:28;4.57;;;1.38;;
74196;SDS011;62555;52.678;4.900;2022-10-01T09:40:13;4.22;;;1.92;;
74196;SDS011;62555;52.678;4.900;2022-10-01T09:42:41;4.55;;;1.63;;
74196;SDS011;62555;52.678;4.900;2022-10-01T09:45:10;2.88;;;1.65;;
74196;SDS011;62555;52.678;4.900;2022-10-01T09:47:39;5.40;;;1.88;;
74196;SDS011;62555;52.678;4.900;2022-10-01T09:50:10;3.88;;;2.05;;
74196;SDS011;62555;52.678;4.900;2022-10-01T09:52:38;3.78;;;1.63;;
74196;SDS011;62555;52.678;4.900;2022-10-01T09:55:21;4.85;;;1.70;;
74196;SDS011;62555;52.678;4.900;2022-10-01T09:58:16;6.00;;;2.22;;
74196;SDS011;62555;52.678;4.900;2022-10-01T10:00:43;4.72;;;2.28;;
74196;SDS011;62555;52.678;4.900;2022-10-01T10:03:09;5.90;;;2.17;;
74196;SDS011;62555;52.678;4.900;2022-10-01T10:05:41;3.47;;;1.83;;
74196;SDS011;62555;52.678;4.900;2022-10-01T10:08:12;6.53;;;2.10;;
74196;SDS011;62555;52.678;4.900;2022-10-01T10:10:46;4.50;;;2.10;;
74196;SDS011;62555;52.678;4.900;2022-10-01T10:13:24;3.92;;;2.10;;
74196;SDS011;62555;52.678;4.900;2022-10-01T10:15:54;5.50;;;1.83;;
74196;SDS011;62555;52.678;4.900;2022-10-01T10:18:32;6.97;;;1.92;;
74196;SDS011;62555;52.678;4.900;2022-10-01T10:21:00;2.97;;;1.63;;
74196;SDS011;62555;52.678;4.900;2022-10-01T10:23:27;3.05;;;1.83;;
74196;SDS011;62555;52.678;4.900;2022-10-01T10:25:56;6.40;;;2.33;;
74196;SDS011;62555;52.678;4.900;2022-10-01T10:28:26;3.88;;;1.90;;
74196;SDS011;62555;52.678;4.900;2022-10-01T10:30:53;7.20;;;2.30;;
74196;SDS011;62555;52.678;4.900;2022-10-01T10:33:19;6.68;;;2.53;;
74196;SDS011;62555;52.678;4.900;2022-10-01T10:36:10;5.60;;;1.75;;
74196;SDS011;62555;52.678;4.900;2022-10-01T10:38:33;4.07;;;2.10;;
74196;SDS011;62555;52.678;4.900;2022-10-01T10:40:59;5.50;;;1.98;;
74196;SDS011;62555;52.678;4.900;2022-10-01T10:43:27;4.22;;;2.17;;
74196;SDS011;62555;52.678;4.900;2022-10-01T10:45:54;6.25;;;2.17;;
74196;SDS011;62555;52.678;4.900;2022-10-01T10:48:21;5.82;;;2.28;;
74196;SDS011;62555;52.678;4.900;2022-10-01T10:50:48;4.72;;;1.80;;
74196;SDS011;62555;52.678;4.900;2022-10-01T10:53:17;4.70;;;2.40;;
74196;SDS011;62555;52.678;4.900;2022-10-01T10:55:53;5.75;;;1.73;;
74196;SDS011;62555;52.678;4.900;2022-10-01T10:58:24;5.35;;;1.98;;
74196;SDS011;62555;52.678;4.900;2022-10-01T11:00:52;6.88;;;2.15;;
74196;SDS011;62555;52.678;4.900;2022-10-01T11:03:21;5.70;;;2.20;;
74196;SDS011;62555;52.678;4.900;2022-10-01T11:05:48;5.50;;;1.95;;
74196;SDS011;62555;52.678;4.900;2022-10-01T11:18:44;3.33;;;1.88;;
74196;SDS011;62555;52.678;4.900;2022-10-01T11:32:21;4.07;;;1.80;;
74196;SDS011;62555;52.678;4.900;2022-10-01T11:41:33;8.32;;;2.05;;
74196;SDS011;62555;52.678;4.900;2022-10-01T11:43:45;6.53;;;2.58;;
74196;SDS011;62555;52.678;4.900;2022-10-01T11:46:18;4.18;;;1.70;;
74196;SDS011;62555;52.678;4.900;2022-10-01T11:48:50;8.95;;;2.53;;
74196;SDS011;62555;52.678;4.900;2022-10-01T11:51:26;5.95;;;2.17;;
74196;SDS011;62555;52.678;4.900;2022-10-01T11:53:58;3.88;;;1.90;;
74196;SDS011;62555;52.678;4.900;2022-10-01T12:01:48;5.05;;;2.50;;
74196;SDS011;62555;52.678;4.900;2022-10-01T12:12:16;4.88;;;2.05;;
74196;SDS011;62555;52.678;4.900;2022-10-01T12:17:51;4.95;;;1.98;;
74196;SDS011;62555;52.678;4.900;2022-10-01T12:20:28;7.32;;;2.13;;
74196;SDS011;62555;52.678;4.900;2022-10-01T12:22:58;7.07;;;2.03;;
74196;SDS011;62555;52.678;4.900;2022-10-01T12:28:51;4.07;;;2.03;;
74196;SDS011;62555;52.678;4.900;2022-10-01T12:37:07;5.93;;;2.20;;
74196;SDS011;62555;52.678;4.900;2022-10-01T12:47:38;4.20;;;2.25;;
74196;SDS011;62555;52.678;4.900;2022-10-01T12:53:21;7.90;;;2.03;;
74196;SDS011;62555;52.678;4.900;2022-10-01T12:56:05;5.90;;;2.03;;
74196;SDS011;62555;52.678;4.900;2022-10-01T12:58:45;4.47;;;1.48;;
74196;SDS011;62555;52.678;4.900;2022-10-01T13:01:20;5.68;;;1.70;;
74196;SDS011;62555;52.678;4.900;2022-10-01T13:09:36;4.30;;;2.03;;
74196;SDS011;62555;52.678;4.900;2022-10-01T13:12:09;6.15;;;2.30;;
74196;SDS011;62555;52.678;4.900;2022-10-01T13:14:55;6.15;;;2.63;;
74196;SDS011;62555;52.678;4.900;2022-10-01T13:17:23;4.68;;;2.08;;
74196;SDS011;62555;52.678;4.900;2022-10-01T13:19:55;6.90;;;2.20;;
74196;SDS011;62555;52.678;4.900;2022-10-01T13:25:18;5.90;;;2.03;;
74196;SDS011;62555;52.678;4.900;2022-10-01T13:27:54;5.05;;;1.63;;
74196;SDS011;62555;52.678;4.900;2022-10-01T13:30:50;6.55;;;2.38;;
74196;SDS011;62555;52.678;4.900;2022-10-01T13:33:25;6.57;;;2.05;;
74196;SDS011;62555;52.678;4.900;2022-10-01T13:36:00;4.90;;;2.00;;
74196;SDS011;62555;52.678;4.900;2022-10-01T13:38:38;4.95;;;1.80;;
74196;SDS011;62555;52.678;4.900;2022-10-01T13:41:15;4.38;;;1.70;;
74196;SDS011;62555;52.678;4.900;2022-10-01T13:43:46;5.65;;;1.80;;
74196;SDS011;62555;52.678;4.900;2022-10-01T13:46:22;7.05;;;2.38;;
74196;SDS011;62555;52.678;4.900;2022-10-01T13:48:52;3.88;;;2.25;;
74196;SDS011;62555;52.678;4.900;2022-10-01T13:51:18;6.40;;;2.08;;
74196;SDS011;62555;52.678;4.900;2022-10-01T13:53:55;4.97;;;2.40;;
74196;SDS011;62555;52.678;4.900;2022-10-01T13:56:42;6.43;;;2.13;;
74196;SDS011;62555;52.678;4.900;2022-10-01T14:02:23;5.85;;;1.85;;
74196;SDS011;62555;52.678;4.900;2022-10-01T14:04:53;5.05;;;1.88;;
74196;SDS011;62555;52.678;4.900;2022-10-01T14:07:24;7.75;;;2.60;;
74196;SDS011;62555;52.678;4.900;2022-10-01T14:09:53;6.53;;;2.30;;
74196;SDS011;62555;52.678;4.900;2022-10-01T14:12:22;6.60;;;2.28;;
74196;SDS011;62555;52.678;4.900;2022-10-01T14:15:36;7.65;;;1.95;;
74196;SDS011;62555;52.678;4.900;2022-10-01T14:18:21;5.60;;;2.08;;
74196;SDS011;62555;52.678;4.900;2022-10-01T14:23:17;5.00;;;1.80;;
74196;SDS011;62555;52.678;4.900;2022-10-01T14:36:17;7.40;;;2.28;;
74196;SDS011;62555;52.678;4.900;2022-10-01T14:38:44;6.55;;;2.10;;
74196;SDS011;62555;52.678;4.900;2022-10-01T14:41:16;5.70;;;2.08;;
74196;SDS011;62555;52.678;4.900;2022-10-01T14:43:42;5.05;;;2.03;;
74196;SDS011;62555;52.678;4.900;2022-10-01T14:46:12;5.70;;;2.08;;
74196;SDS011;62555;52.678;4.900;2022-10-01T14:48:40;10.07;;;2.65;;
74196;SDS011;62555;52.678;4.900;2022-10-01T14:51:18;5.53;;;2.17;;
74196;SDS011;62555;52.678;4.900;2022-10-01T14:53:55;5.80;;;1.98;;
74196;SDS011;62555;52.678;4.900;2022-10-01T14:56:22;7.10;;;1.90;;
74196;SDS011;62555;52.678;4.900;2022-10-01T14:58:51;6.20;;;1.90;;
74196;SDS011;62555;52.678;4.900;2022-10-01T15:01:19;7.10;;;2.28;;
74196;SDS011;62555;52.678;4.900;2022-10-01T15:03:46;7.47;;;2.20;;
74196;SDS011;62555;52.678;4.900;2022-10-01T15:06:13;5.82;;;2.40;;
74196;SDS011;62555;52.678;4.900;2022-10-01T15:08:40;6.13;;;1.90;;
74196;SDS011;62555;52.678;4.900;2022-10-01T15:11:18;5.70;;;2.00;;
74196;SDS011;62555;52.678;4.900;2022-10-01T15:13:55;5.70;;;2.22;;
74196;SDS011;62555;52.678;4.900;2022-10-01T15:16:25;5.65;;;1.80;;
74196;SDS011;62555;52.678;4.900;2022-10-01T15:19:04;4.13;;;2.13;;
74196;SDS011;62555;52.678;4.900;2022-10-01T15:21:33;6.38;;;1.88;;
74196;SDS011;62555;52.678;4.900;2022-10-01T15:24:16;4.88;;;1.95;;
74196;SDS011;62555;52.678;4.900;2022-10-01T15:27:03;4.85;;;2.08;;
74196;SDS011;62555;52.678;4.900;2022-10-01T15:29:30;6.05;;;1.88;;
74196;SDS011;62555;52.678;4.900;2022-10-01T15:31:56;4.95;;;1.67;;
74196;SDS011;62555;52.678;4.900;2022-10-01T15:34:22;7.03;;;2.05;;
74196;SDS011;62555;52.678;4.900;2022-10-01T15:36:49;4.00;;;1.60;;
74196;SDS011;62555;52.678;4.900;2022-10-01T15:49:59;4.95;;;2.17;;
74196;SDS011;62555;52.678;4.900;2022-10-01T15:52:26;4.88;;;1.70;;
74196;SDS011;62555;52.678;4.900;2022-10-01T15:55:12;5.97;;;1.80;;
74196;SDS011;62555;52.678;4.900;2022-10-01T15:57:41;6.32;;;1.90;;
74196;SDS011;62555;52.678;4.900;2022-10-01T16:00:41;5.35;;;1.80;;
74196;SDS011;62555;52.678;4.900;2022-10-01T16:03:12;6.18;;;1.58;;
74196;SDS011;62555;52.678;4.900;2022-10-01T16:05:45;5.50;;;1.88;;
74196;SDS011;62555;52.678;4.900;2022-10-01T16:08:15;4.90;;;2.13;;
74196;SDS011;62555;52.678;4.900;2022-10-01T16:10:47;5.32;;;1.63;;
74196;SDS011;62555;52.678;4.900;2022-10-01T16:18:32;5.55;;;1.90;;
74196;SDS011;62555;52.678;4.900;2022-10-01T16:20:59;2.58;;;1.70;;
74196;SDS011;62555;52.678;4.900;2022-10-01T16:23:32;4.57;;;1.55;;
74196;SDS011;62555;52.678;4.900;2022-10-01T16:26:01;5.38;;;1.58;;
74196;SDS011;62555;52.678;4.900;2022-10-01T16:28:28;4.47;;;1.20;;
74196;SDS011;62555;52.678;4.900;2022-10-01T16:30:58;5.60;;;2.00;;
74196;SDS011;62555;52.678;4.900;2022-10-01T16:33:24;4.63;;;1.67;;
74196;SDS011;62555;52.678;4.900;2022-10-01T16:35:50;5.82;;;1.45;;
74196;SDS011;62555;52.678;4.900;2022-10-01T16:38:17;4.85;;;2.28;;
74196;SDS011;62555;52.678;4.900;2022-10-01T16:40:42;4.40;;;1.50;;
74196;SDS011;62555;52.678;4.900;2022-10-01T16:43:17;3.38;;;1.63;;
74196;SDS011;62555;52.678;4.900;2022-10-01T16:45:44;4.65;;;1.58;;
74196;SDS011;62555;52.678;4.900;2022-10-01T16:48:13;3.92;;;1.73;;
74196;SDS011;62555;52.678;4.900;2022-10-01T16:50:43;4.78;;;1.48;;
74196;SDS011;62555;52.678;4.900;2022-10-01T16:53:11;4.88;;;1.88;;
74196;SDS011;62555;52.678;4.900;2022-10-01T16:55:39;3.08;;;1.25;;
74196;SDS011;62555;52.678;4.900;2022-10-01T16:58:04;5.68;;;1.48;;
74196;SDS011;62555;52.678;4.900;2022-10-01T17:00:31;3.72;;;1.38;;
74196;SDS011;62555;52.678;4.900;2022-10-01T17:02:56;5.32;;;1.52;;
74196;SDS011;62555;52.678;4.900;2022-10-01T17:05:24;4.45;;;1.48;;
74196;SDS011;62555;52.678;4.900;2022-10-01T17:07:51;5.72;;;1.83;;
74196;SDS011;62555;52.678;4.900;2022-10-01T17:10:18;3.13;;;1.67;;
74196;SDS011;62555;52.678;4.900;2022-10-01T17:12:44;2.80;;;1.45;;
74196;SDS011;62555;52.678;4.900;2022-10-01T17:15:12;3.97;;;1.40;;
74196;SDS011;62555;52.678;4.900;2022-10-01T17:17:45;3.45;;;1.60;;
74196;SDS011;62555;52.678;4.900;2022-10-01T17:20:11;6.25;;;1.80;;
74196;SDS011;62555;52.678;4.900;2022-10-01T17:22:37;5.47;;;2.25;;
74196;SDS011;62555;52.678;4.900;2022-10-01T17:25:03;4.50;;;2.00;;
74196;SDS011;62555;52.678;4.900;2022-10-01T17:27:29;4.50;;;1.20;;
74196;SDS011;62555;52.678;4.900;2022-10-01T17:29:55;3.15;;;2.15;;
74196;SDS011;62555;52.678;4.900;2022-10-01T17:32:21;6.82;;;1.90;;
74196;SDS011;62555;52.678;4.900;2022-10-01T17:34:46;7.20;;;1.90;;
74196;SDS011;62555;52.678;4.900;2022-10-01T17:37:12;3.60;;;1.30;;